Time;durP1;ratioP1;P1;durP2;ratioP2;P2;SDS_P1;SDS_P2;PMS_P1;PMS_P2;Temp;Humidity;BMP_temperature;BMP_pressure;BME280_temperature;BME280_humidity;BME280_pressure;Samples;Min_cycle;Max_cycle;Signal;HPM_P1;HPM_P2
2021/08/02 00:01:34;;;;;;;;;2.33;2.33;;;;;20.19;52.12;101105.94;5075058;27;46302;-85
2021/08/02 00:04:03;;;;;;;;;1.00;1.00;;;;;20.22;52.00;101100.53;5074961;27;45398;-85
2021/08/02 00:06:38;;;;;;;;;5.00;2.00;;;;;20.21;52.29;101106.81;5074576;27;45387;-85
2021/08/02 00:09:07;;;;;;;;;2.67;2.67;;;;;20.22;52.25;101105.88;5073394;27;45473;-86
2021/08/02 00:11:38;;;;;;;;;3.00;1.00;;;;;20.21;52.25;101105.91;5074036;27;45451;-86
2021/08/02 00:14:07;;;;;;;;;1.00;1.00;;;;;20.19;52.45;101099.72;5074728;27;45377;-85
2021/08/02 00:16:35;;;;;;;;;1.00;1.00;;;;;20.19;52.51;101103.28;5073977;28;45122;-86
2021/08/02 00:19:00;;;;;;;;;3.33;2.67;;;;;20.21;52.43;101103.25;5073718;27;45406;-86
2021/08/02 00:21:26;;;;;;;;;5.00;1.33;;;;;20.17;52.23;101094.41;5061902;27;46466;-86
2021/08/02 00:23:52;;;;;;;;;3.00;1.33;;;;;20.16;52.45;101100.66;5059998;28;45422;-85
2021/08/02 00:26:20;;;;;;;;;1.00;1.00;;;;;20.20;52.64;101102.34;5059212;28;45467;-85
2021/08/02 00:28:45;;;;;;;;;2.00;1.00;;;;;20.16;52.48;101097.97;5059554;28;45318;-85
2021/08/02 00:31:12;;;;;;;;;4.67;1.33;;;;;20.16;52.46;101105.13;5059116;28;46505;-86
2021/08/02 00:33:38;;;;;;;;;3.00;2.00;;;;;20.13;52.74;101100.72;5059377;28;45329;-86
2021/08/02 00:36:19;;;;;;;;;2.00;2.00;;;;;20.16;52.65;101108.66;5059033;28;45326;-86
2021/08/02 00:39:07;;;;;;;;;2.00;2.00;;;;;20.16;52.66;101114.00;5059416;28;45755;-85
2021/08/02 00:42:07;;;;;;;;;2.00;1.00;;;;;20.15;52.79;101106.03;5058834;28;45561;-85
2021/08/02 00:45:05;;;;;;;;;2.33;2.33;;;;;20.12;52.71;101115.84;5057369;28;45567;-84
2021/08/02 00:47:40;;;;;;;;;1.33;1.33;;;;;20.08;52.56;101106.13;4996504;28;45530;-84
2021/08/02 00:50:12;;;;;;;;;1.00;1.00;;;;;20.10;52.73;101112.31;4997894;28;45457;-84
2021/08/02 00:52:50;;;;;;;;;2.00;2.00;;;;;20.09;52.92;101112.34;4997846;28;46540;-85
2021/08/02 00:55:16;;;;;;;;;3.33;2.33;;;;;20.06;53.10;101112.34;4997820;28;45338;-84
2021/08/02 00:57:42;;;;;;;;;1.00;1.00;;;;;20.06;52.85;101110.56;4981707;28;45422;-85
2021/08/02 01:00:12;;;;;;;;;1.33;1.33;;;;;20.00;53.06;101100.88;4998552;28;45575;-85
2021/08/02 01:02:42;;;;;;;;;2.00;2.00;;;;;19.97;53.37;101105.38;4998031;28;46249;-85
2021/08/02 01:05:10;;;;;;;;;3.00;2.33;;;;;19.94;53.20;101101.00;4997704;28;45290;-84
2021/08/02 01:07:42;;;;;;;;;2.33;2.00;;;;;19.96;53.22;101104.50;4997752;28;45356;-85
2021/08/02 01:10:10;;;;;;;;;1.00;1.00;;;;;19.95;53.21;101097.41;4965699;28;45302;-84
2021/08/02 01:12:36;;;;;;;;;3.67;1.67;;;;;19.93;53.69;101104.56;4997730;28;46194;-84
2021/08/02 01:15:02;;;;;;;;;5.67;2.00;;;;;19.92;53.48;101101.91;4998047;28;45614;-85
2021/08/02 01:17:28;;;;;;;;;3.00;1.33;;;;;19.90;53.35;101107.28;4998052;28;45646;-85
2021/08/02 01:19:55;;;;;;;;;2.00;2.00;;;;;19.88;53.54;101107.28;4997164;28;45348;-85
2021/08/02 01:22:30;;;;;;;;;1.67;1.67;;;;;19.86;53.79;101109.09;4997696;28;48561;-85
2021/08/02 01:24:56;;;;;;;;;2.00;2.00;;;;;19.82;53.41;101107.38;5046888;28;45345;-85
2021/08/02 01:27:45;;;;;;;;;4.33;2.67;;;;;19.82;53.92;101107.38;5059954;28;45392;-85
2021/08/02 01:30:22;;;;;;;;;3.33;1.67;;;;;19.78;53.94;101106.56;5059677;28;45382;-85
2021/08/02 01:32:48;;;;;;;;;2.00;2.00;;;;;19.75;53.63;101111.06;5057841;28;45500;-86
2021/08/02 01:35:14;;;;;;;;;3.00;2.00;;;;;19.68;54.24;101107.59;5059595;28;45263;-85
2021/08/02 01:37:43;;;;;;;;;2.67;2.00;;;;;19.67;53.95;101117.38;5059974;28;45345;-83
2021/08/02 01:40:10;;;;;;;;;2.33;2.33;;;;;19.67;54.43;101119.19;5058701;28;45326;-85
2021/08/02 01:42:37;;;;;;;;;2.67;2.67;;;;;19.66;54.36;101114.75;5057728;28;47318;-86
2021/08/02 01:45:04;;;;;;;;;3.00;2.00;;;;;19.63;54.67;101114.81;5058704;28;45327;-85
2021/08/02 01:47:47;;;;;;;;;5.67;1.67;;;;;19.61;54.71;101111.25;5058585;28;45372;-85
2021/08/02 01:50:28;;;;;;;;;2.67;2.67;;;;;19.60;54.63;101113.06;5058384;28;45384;-84
2021/08/02 01:53:13;;;;;;;;;2.00;2.00;;;;;19.55;54.92;101105.13;5058448;28;46415;-84
2021/08/02 01:55:43;;;;;;;;;4.67;2.67;;;;;19.53;54.73;101114.91;5058587;28;45389;-85
2021/08/02 01:58:10;;;;;;;;;3.33;2.33;;;;;19.46;54.87;101099.91;5059206;28;45416;-84
2021/08/02 02:00:43;;;;;;;;;2.00;2.00;;;;;19.43;54.83;101108.84;5058503;28;45526;-84
2021/08/02 02:03:17;;;;;;;;;3.67;1.67;;;;;19.44;55.23;101113.25;5059865;28;46238;-85
2021/08/02 02:05:55;;;;;;;;;2.67;2.67;;;;;19.44;55.34;101109.69;5060433;28;45399;-85
2021/08/02 02:08:41;;;;;;;;;1.67;1.67;;;;;19.40;55.60;101102.66;5058097;28;45463;-84
2021/08/02 02:11:09;;;;;;;;;3.67;2.67;;;;;19.38;55.27;101107.13;5064927;28;45496;-83
2021/08/02 02:13:43;;;;;;;;;1.67;1.67;;;;;19.36;55.83;101101.81;5079307;28;46085;-84
2021/08/02 02:16:13;;;;;;;;;5.00;2.33;;;;;19.32;55.53;101106.31;5097160;28;45265;-85
2021/08/02 02:18:46;;;;;;;;;3.33;3.33;;;;;19.26;55.76;101093.06;5080867;28;44697;-85
2021/08/02 02:21:12;;;;;;;;;2.67;2.33;;;;;19.30;55.72;101101.91;5058977;28;45459;-85
2021/08/02 02:23:38;;;;;;;;;2.00;1.67;;;;;19.24;55.89;101099.31;5058301;28;45494;-85
2021/08/02 02:26:06;;;;;;;;;2.67;2.67;;;;;19.17;55.81;101087.84;5058140;28;45468;-84
2021/08/02 02:28:34;;;;;;;;;2.00;2.00;;;;;19.23;56.03;101109.09;5057448;28;45255;-84
2021/08/02 02:31:01;;;;;;;;;4.33;3.00;;;;;19.23;55.95;101108.22;5058509;28;45496;-85
2021/08/02 02:33:30;;;;;;;;;2.33;2.33;;;;;19.20;56.25;101101.16;5058545;28;46095;-85
2021/08/02 02:35:56;;;;;;;;;2.00;2.00;;;;;19.19;56.53;101099.38;5058177;28;45339;-86
2021/08/02 02:38:22;;;;;;;;;4.33;3.00;;;;;19.18;56.50;101105.63;5058176;28;45272;-85
2021/08/02 02:40:48;;;;;;;;;2.67;2.67;;;;;19.17;56.45;101110.06;5058338;28;45341;-85
2021/08/02 02:43:14;;;;;;;;;3.33;1.67;;;;;19.13;56.63;101097.63;5056040;28;46546;-85
2021/08/02 02:45:42;;;;;;;;;2.33;2.00;;;;;19.12;56.52;101097.66;5058028;28;45416;-84
2021/08/02 02:48:07;;;;;;;;;2.67;2.67;;;;;19.15;56.48;101110.97;5072332;28;45462;-85
2021/08/02 02:50:34;;;;;;;;;3.33;1.67;;;;;19.07;56.76;101100.38;5057048;28;45466;-85
2021/08/02 02:53:01;;;;;;;;;2.00;1.33;;;;;19.13;56.75;101112.72;5057008;28;46105;-85
2021/08/02 02:55:29;;;;;;;;;3.67;3.33;;;;;19.05;56.67;101105.75;5056660;28;45457;-85
2021/08/02 02:57:55;;;;;;;;;3.00;3.00;;;;;19.07;56.61;101109.25;5057102;28;45373;-85
2021/08/02 03:00:21;;;;;;;;;3.33;2.00;;;;;19.04;56.88;101105.72;5055374;28;45739;-85
2021/08/02 03:02:49;;;;;;;;;7.00;2.67;;;;;19.02;57.07;101100.44;5056574;28;46146;-85
2021/08/02 03:05:16;;;;;;;;;2.67;2.67;;;;;19.06;57.05;101107.47;5056838;28;45339;-85
2021/08/02 03:07:43;;;;;;;;;4.67;3.33;;;;;19.04;57.07;101101.28;5056837;28;45310;-85
2021/08/02 03:10:11;;;;;;;;;3.33;3.00;;;;;19.04;57.03;101109.28;5056836;28;45424;-85
2021/08/02 03:12:36;;;;;;;;;3.33;1.67;;;;;19.05;57.10;101105.75;5056739;28;46403;-86
2021/08/02 03:15:03;;;;;;;;;5.33;4.00;;;;;19.05;57.21;101107.50;5056772;28;45508;-84
2021/08/02 03:17:29;;;;;;;;;2.67;1.67;;;;;19.02;57.12;101100.44;5056992;28;45425;-84
2021/08/02 03:19:54;;;;;;;;;4.00;2.67;;;;;19.02;57.26;101113.75;5056736;28;45330;-85
2021/08/02 03:22:37;;;;;;;;;5.00;2.67;;;;;18.99;57.26;101105.81;5056827;28;46347;-85
2021/08/02 03:25:26;;;;;;;;;3.67;3.00;;;;;19.00;57.19;101104.91;5056827;28;45433;-85
2021/08/02 03:27:56;;;;;;;;;2.67;2.00;;;;;18.99;57.53;101108.47;5072887;27;45464;-87
2021/08/02 03:30:24;;;;;;;;;2.67;2.67;;;;;18.99;57.46;101113.81;5057418;28;45463;-86
2021/08/02 03:32:51;;;;;;;;;4.00;3.00;;;;;18.97;57.30;101115.59;5055786;28;45480;-86
2021/08/02 03:35:18;;;;;;;;;4.67;2.67;;;;;18.94;57.44;101113.84;5055472;28;45326;-84
2021/08/02 03:37:44;;;;;;;;;4.33;2.33;;;;;18.97;57.67;101127.13;5056836;28;45299;-84
2021/08/02 03:40:15;;;;;;;;;2.00;1.67;;;;;18.96;57.44;101130.69;5056803;28;45454;-85
2021/08/02 03:42:41;;;;;;;;;2.00;2.00;;;;;18.94;57.72;101121.84;5071608;28;47349;-85
2021/08/02 03:45:09;;;;;;;;;4.00;3.00;;;;;18.95;57.65;101136.06;5056688;28;45181;-85
2021/08/02 03:47:35;;;;;;;;;4.67;2.67;;;;;18.95;57.46;101136.06;5056291;28;45233;-85
2021/08/02 03:50:01;;;;;;;;;2.67;2.67;;;;;18.92;57.45;101126.31;5055366;28;45373;-85
2021/08/02 03:52:26;;;;;;;;;2.33;2.33;;;;;18.93;57.61;101138.72;5055135;28;46253;-85
2021/08/02 03:54:52;;;;;;;;;2.67;2.67;;;;;18.88;57.53;101135.22;5056369;28;45283;-85
2021/08/02 03:57:18;;;;;;;;;3.33;3.00;;;;;18.90;57.52;101144.09;5059967;28;45349;-85
2021/08/02 03:59:47;;;;;;;;;3.67;3.00;;;;;18.85;57.67;101141.47;5060039;28;45461;-85
2021/08/02 04:02:13;;;;;;;;;2.67;2.67;;;;;18.84;57.58;101138.81;5059677;28;45269;-85
2021/08/02 04:04:38;;;;;;;;;4.33;2.67;;;;;18.81;57.96;101142.41;5059588;28;45217;-85
2021/08/02 04:07:04;;;;;;;;;2.67;2.67;;;;;18.83;57.76;101151.25;5059888;28;45326;-84
2021/08/02 04:09:29;;;;;;;;;4.33;4.33;;;;;18.81;57.54;101150.38;5060260;28;45323;-86
2021/08/02 04:11:55;;;;;;;;;3.33;2.33;;;;;18.80;57.62;101161.97;5059797;28;45295;-85
2021/08/02 04:14:20;;;;;;;;;7.33;4.33;;;;;18.75;57.90;101156.66;5076185;27;45358;-82
2021/08/02 04:16:46;;;;;;;;;3.00;3.00;;;;;18.76;58.02;101165.53;5088337;27;44672;-85
2021/08/02 04:19:11;;;;;;;;;2.67;2.67;;;;;18.75;57.99;101171.75;5087996;27;45271;-83
2021/08/02 04:21:37;;;;;;;;;5.00;3.33;;;;;18.66;58.11;101162.06;5084115;28;45376;-85
2021/08/02 04:24:03;;;;;;;;;4.00;3.00;;;;;18.65;57.97;101165.66;5082230;28;44656;-85
2021/08/02 04:26:28;;;;;;;;;2.33;2.33;;;;;18.66;58.31;101178.03;5079656;28;45389;-84
2021/08/02 04:28:56;;;;;;;;;5.00;3.33;;;;;18.57;58.77;101163.03;5071164;28;45308;-85
2021/08/02 04:31:24;;;;;;;;;4.00;4.00;;;;;18.63;57.99;101170.97;5063976;28;46358;-85
2021/08/02 04:33:49;;;;;;;;;2.33;2.33;;;;;18.62;58.24;101171.88;5061258;28;45334;-84
2021/08/02 04:36:15;;;;;;;;;4.00;3.00;;;;;18.61;58.32;101175.41;5061106;28;45354;-84
2021/08/02 04:38:40;;;;;;;;;5.00;3.00;;;;;18.60;58.18;101171.00;5059908;28;45413;-85
2021/08/02 04:41:06;;;;;;;;;3.00;3.00;;;;;18.58;58.20;101170.13;5059469;28;46356;-85
2021/08/02 04:43:31;;;;;;;;;7.00;4.33;;;;;18.57;58.55;101173.69;5057547;28;45711;-84
2021/08/02 04:45:57;;;;;;;;;3.67;3.67;;;;;18.55;58.33;101170.16;5059296;28;45381;-84
2021/08/02 04:48:22;;;;;;;;;4.00;2.67;;;;;18.50;58.55;101169.31;5059286;28;45341;-85
2021/08/02 04:50:48;;;;;;;;;4.00;3.00;;;;;18.50;58.57;101170.22;5058940;28;46435;-84
2021/08/02 04:53:13;;;;;;;;;3.00;2.00;;;;;18.40;58.68;101153.41;5058812;28;45509;-85
2021/08/02 04:55:39;;;;;;;;;3.67;2.33;;;;;18.38;58.91;101152.56;5074728;27;45584;-85
2021/08/02 04:58:04;;;;;;;;;4.00;2.00;;;;;18.45;58.68;101158.72;5058866;28;45379;-85
2021/08/02 05:00:31;;;;;;;;;5.00;3.33;;;;;18.45;58.81;101166.69;5058705;28;45353;-85
2021/08/02 05:02:57;;;;;;;;;4.00;4.00;;;;;18.45;59.13;101169.34;5058790;28;45608;-85
2021/08/02 05:05:22;;;;;;;;;5.33;3.67;;;;;18.43;58.65;101171.16;5058723;28;45301;-85
2021/08/02 05:07:48;;;;;;;;;7.00;3.00;;;;;18.43;58.81;101176.47;5058689;28;45292;-85
2021/08/02 05:10:13;;;;;;;;;6.00;6.00;;;;;18.44;59.15;101169.38;5058694;28;45327;-85
2021/08/02 05:12:39;;;;;;;;;5.33;3.67;;;;;18.38;59.35;101168.53;5058562;28;45248;-86
2021/08/02 05:15:06;;;;;;;;;6.67;3.00;;;;;18.43;58.92;101164.94;5058753;28;45436;-85
2021/08/02 05:17:31;;;;;;;;;5.00;3.67;;;;;18.45;59.17;101171.13;5059566;28;45268;-86
2021/08/02 05:19:57;;;;;;;;;4.33;2.33;;;;;18.50;58.84;101182.63;5074899;28;45161;-84
2021/08/02 05:22:22;;;;;;;;;4.00;4.00;;;;;18.48;59.05;101174.66;5075734;28;45448;-85
2021/08/02 05:24:47;;;;;;;;;3.00;3.00;;;;;18.52;59.52;101183.50;5076276;28;45790;-85
2021/08/02 05:27:13;;;;;;;;;6.33;4.00;;;;;18.54;59.00;101189.69;5075986;28;45393;-85
2021/08/02 05:29:38;;;;;;;;;3.00;3.00;;;;;18.51;59.45;101179.94;5074065;28;45303;-85
2021/08/02 05:32:04;;;;;;;;;4.00;4.00;;;;;18.55;59.13;101183.47;5069510;28;45384;-85
2021/08/02 05:34:29;;;;;;;;;5.00;5.00;;;;;18.43;59.31;101170.25;5071689;28;45397;-84
2021/08/02 05:36:55;;;;;;;;;7.00;4.67;;;;;18.59;59.07;101187.88;5071642;28;45386;-85
2021/08/02 05:39:20;;;;;;;;;2.67;2.67;;;;;18.60;59.17;101194.97;5069524;28;45505;-87
2021/08/02 05:41:45;;;;;;;;;6.00;4.00;;;;;18.62;59.36;101190.50;5067753;28;45483;-85
2021/08/02 05:44:11;;;;;;;;;6.00;3.67;;;;;18.65;59.35;101188.72;5070290;28;45288;-84
2021/08/02 05:46:36;;;;;;;;;2.00;2.00;;;;;18.61;59.42;101180.75;5064992;28;45319;-84
2021/08/02 05:49:02;;;;;;;;;4.00;4.00;;;;;18.70;59.15;101194.88;5063642;28;45355;-85
2021/08/02 05:51:27;;;;;;;;;2.00;2.00;;;;;18.62;59.04;101176.31;5061305;28;45373;-84
2021/08/02 05:53:53;;;;;;;;;1.67;1.67;;;;;18.65;59.27;101180.72;5058746;28;45243;-83
2021/08/02 05:56:18;;;;;;;;;3.00;3.00;;;;;18.77;59.73;101196.59;5058628;27;45287;-84
2021/08/02 05:58:43;;;;;;;;;4.00;4.00;;;;;18.76;59.39;101197.50;5058118;28;46007;-85
2021/08/02 06:01:09;;;;;;;;;5.67;3.33;;;;;18.80;58.97;101201.00;5058211;28;45262;-85
2021/08/02 06:03:34;;;;;;;;;3.33;3.33;;;;;18.84;59.48;101202.75;5057985;28;45318;-85
2021/08/02 06:06:02;;;;;;;;;6.67;4.00;;;;;18.86;59.15;101212.50;5058406;28;45258;-85
2021/08/02 06:08:27;;;;;;;;;4.00;3.00;;;;;18.84;59.37;101197.41;5057878;28;46512;-84
2021/08/02 06:10:53;;;;;;;;;3.67;3.67;;;;;18.90;59.07;101207.13;5057821;28;45322;-86
2021/08/02 06:13:18;;;;;;;;;3.33;2.67;;;;;18.93;58.84;101209.78;5058298;28;45297;-86
2021/08/02 06:15:43;;;;;;;;;3.00;2.67;;;;;18.94;59.00;101200.88;5058324;28;45459;-84
2021/08/02 06:18:09;;;;;;;;;4.00;2.50;;;;;18.98;59.14;101206.16;5057079;28;46913;-85
2021/08/02 06:20:34;;;;;;;;;4.33;3.67;;;;;19.02;58.94;101203.44;5057579;28;46004;-85
2021/08/02 06:23:00;;;;;;;;;3.00;3.00;;;;;19.06;58.91;101208.72;5058447;28;45328;-85
2021/08/02 06:25:25;;;;;;;;;2.67;2.67;;;;;19.09;59.00;101208.72;5056287;28;45489;-84
2021/08/02 06:27:50;;;;;;;;;5.67;4.33;;;;;19.14;58.73;101202.44;5057676;28;45938;-85
2021/08/02 06:30:16;;;;;;;;;6.33;5.33;;;;;19.14;58.76;101197.97;5072986;28;45462;-84
2021/08/02 06:32:41;;;;;;;;;5.33;5.33;;;;;19.14;58.31;101197.97;5057446;28;45495;-85
2021/08/02 06:35:07;;;;;;;;;2.67;2.67;;;;;19.18;59.02;101207.78;5058077;28;45412;-85
2021/08/02 06:37:33;;;;;;;;;8.33;5.00;;;;;19.20;58.43;101205.09;5057449;28;45274;-85
2021/08/02 06:39:58;;;;;;;;;8.33;4.33;;;;;19.23;58.65;101210.34;5057604;28;45234;-85
2021/08/02 06:42:23;;;;;;;;;5.00;4.00;;;;;19.25;59.27;101213.88;5057656;28;45340;-85
2021/08/02 06:44:49;;;;;;;;;7.67;3.67;;;;;19.29;58.99;101218.28;5057449;28;45490;-86
2021/08/02 06:47:14;;;;;;;;;4.00;4.00;;;;;19.29;58.46;101215.63;5057559;28;45210;-85
2021/08/02 06:49:40;;;;;;;;;4.33;3.33;;;;;19.31;58.65;101218.28;5057222;28;45493;-86
2021/08/02 06:52:06;;;;;;;;;3.00;3.00;;;;;19.36;58.72;101226.22;5057952;28;45392;-86
2021/08/02 06:54:31;;;;;;;;;6.00;3.00;;;;;19.39;58.75;101218.19;5058028;28;45250;-86
2021/08/02 06:56:57;;;;;;;;;5.00;3.67;;;;;19.39;58.72;101221.75;5057301;28;45996;-86
2021/08/02 06:59:22;;;;;;;;;4.33;3.00;;;;;19.45;58.80;101223.44;5057418;28;45444;-87
2021/08/02 07:01:48;;;;;;;;;5.00;4.00;;;;;19.47;58.44;101226.09;5057639;28;45365;-86
2021/08/02 07:04:13;;;;;;;;;4.33;4.00;;;;;19.48;58.87;101228.72;5057756;28;45381;-86
2021/08/02 07:06:41;;;;;;;;;4.00;4.00;;;;;19.47;58.67;101218.09;5057242;28;45574;-86
2021/08/02 07:09:07;;;;;;;;;3.67;3.67;;;;;19.51;58.52;101228.72;5057109;28;45401;-84
2021/08/02 07:11:33;;;;;;;;;5.67;4.00;;;;;19.55;58.70;101232.22;5058779;28;45225;-85
2021/08/02 07:13:58;;;;;;;;;8.67;5.33;;;;;19.56;58.98;101228.66;5058860;28;45247;-84
2021/08/02 07:16:24;;;;;;;;;6.33;4.67;;;;;19.60;58.58;101229.50;5058912;28;47170;-84
2021/08/02 07:18:52;;;;;;;;;8.33;7.00;;;;;19.62;58.59;101235.69;5078231;28;45064;-83
2021/08/02 07:21:18;;;;;;;;;8.00;6.33;;;;;19.65;58.32;101231.19;5081870;28;44816;-83
2021/08/02 07:23:44;;;;;;;;;4.67;4.67;;;;;19.71;58.60;101224.03;5080598;28;44780;-84
2021/08/02 07:26:09;;;;;;;;;5.33;5.00;;;;;19.74;58.63;101229.31;5070191;28;45324;-84
2021/08/02 07:28:35;;;;;;;;;8.00;3.67;;;;;19.77;58.57;101232.84;5062262;28;45297;-84
2021/08/02 07:31:00;;;;;;;;;11.00;6.67;;;;;19.84;58.49;101232.75;5070705;28;45388;-85
2021/08/02 07:33:26;;;;;;;;;4.33;4.33;;;;;19.84;58.25;101227.44;5075024;28;45355;-84
2021/08/02 07:35:51;;;;;;;;;6.33;6.33;;;;;19.90;58.49;101233.53;5071552;28;46570;-84
2021/08/02 07:38:17;;;;;;;;;5.00;5.00;;;;;19.94;57.95;101228.16;5073877;28;45352;-83
2021/08/02 07:40:45;;;;;;;;;6.00;5.33;;;;;19.98;58.19;101236.13;5067774;28;45728;-85
2021/08/02 07:43:10;;;;;;;;;6.33;4.33;;;;;19.96;58.13;101221.03;5061808;28;45456;-84
2021/08/02 07:45:35;;;;;;;;;6.33;6.00;;;;;20.06;58.08;101224.44;5061610;28;46293;-84
2021/08/02 07:48:01;;;;;;;;;4.00;4.00;;;;;20.11;57.96;101227.97;5063361;28;45265;-85
2021/08/02 07:50:26;;;;;;;;;5.67;4.00;;;;;20.12;58.00;101229.72;5060414;28;45342;-85
2021/08/02 07:52:52;;;;;;;;;5.00;4.00;;;;;20.17;57.88;101233.22;5060566;28;45449;-86
2021/08/02 07:55:18;;;;;;;;;3.33;2.00;;;;;20.20;57.84;101235.81;5060093;28;46452;-85
2021/08/02 07:57:43;;;;;;;;;6.33;5.33;;;;;20.25;57.89;101244.66;5060205;28;45354;-85
2021/08/02 08:00:11;;;;;;;;;8.67;6.00;;;;;20.28;57.86;101238.41;5061670;28;45407;-86
2021/08/02 08:02:37;;;;;;;;;5.00;5.00;;;;;20.32;57.69;101239.22;5062824;28;45442;-84
2021/08/02 08:05:03;;;;;;;;;7.00;4.67;;;;;20.35;57.46;101237.38;5060748;28;47065;-84
2021/08/02 08:07:29;;;;;;;;;9.33;4.33;;;;;20.34;57.39;101230.28;5062726;28;45255;-84
2021/08/02 08:09:54;;;;;;;;;6.33;6.00;;;;;20.41;57.57;101233.72;5066504;28;45239;-87
2021/08/02 08:12:20;;;;;;;;;7.00;5.00;;;;;20.47;57.52;101228.28;5064308;28;45255;-84
2021/08/02 08:14:45;;;;;;;;;4.00;4.00;;;;;20.51;57.56;101229.13;5063473;28;45397;-87
2021/08/02 08:17:10;;;;;;;;;4.00;4.00;;;;;20.48;57.28;101219.38;5060674;28;45473;-87
2021/08/02 08:19:36;;;;;;;;;5.00;4.67;;;;;20.59;57.01;101232.56;5062068;28;45326;-87
2021/08/02 08:22:01;;;;;;;;;6.00;5.00;;;;;20.58;56.88;101219.25;5066452;28;45390;-85
2021/08/02 08:24:27;;;;;;;;;6.00;6.00;;;;;20.65;56.72;101220.88;5061462;28;45667;-84
2021/08/02 08:26:52;;;;;;;;;5.67;5.67;;;;;20.74;56.41;101232.31;5061861;28;45425;-85
2021/08/02 08:29:18;;;;;;;;;5.67;5.33;;;;;20.80;56.53;101226.84;5060902;28;45268;-85
2021/08/02 08:31:43;;;;;;;;;4.67;4.33;;;;;20.87;56.58;101225.84;5062729;28;45476;-85
2021/08/02 08:34:09;;;;;;;;;4.00;4.00;;;;;20.90;56.28;101215.09;5058749;28;46202;-85
2021/08/02 08:36:35;;;;;;;;;6.00;4.00;;;;;21.00;56.31;101220.31;5061897;28;45322;-86
2021/08/02 08:39:03;;;;;;;;;7.00;5.00;;;;;21.13;56.17;101235.19;5059708;28;45444;-86
2021/08/02 08:41:29;;;;;;;;;7.00;6.00;;;;;21.14;55.91;101206.69;5059045;28;45260;-86
2021/08/02 08:43:55;;;;;;;;;5.33;4.00;;;;;21.30;55.92;101212.59;5058658;28;45430;-86
2021/08/02 08:46:21;;;;;;;;;3.00;3.00;;;;;21.39;56.01;101216.88;5059271;28;45177;-86
2021/08/02 08:48:48;;;;;;;;;4.00;4.00;;;;;21.54;55.54;101215.69;5059310;28;45481;-85
2021/08/02 08:51:14;;;;;;;;;5.00;5.00;;;;;21.66;55.28;101219.03;5059288;28;45453;-85
2021/08/02 08:53:44;;;;;;;;;5.33;5.00;;;;;21.75;54.55;101232.19;5059134;28;46551;-86
2021/08/02 08:56:10;;;;;;;;;7.00;5.67;;;;;21.80;54.46;101216.03;5059027;28;45145;-86
2021/08/02 08:58:36;;;;;;;;;6.00;6.00;;;;;21.95;54.85;101222.88;5057646;28;45444;-86
2021/08/02 09:01:04;;;;;;;;;5.67;5.33;;;;;22.05;54.99;101208.38;5059011;28;45553;-86
2021/08/02 09:03:30;;;;;;;;;4.33;3.00;;;;;22.13;54.19;101196.59;5059014;28;45366;-86
2021/08/02 09:06:06;;;;;;;;;6.67;5.00;;;;;22.40;53.76;101221.81;5059016;28;45413;-86
2021/08/02 09:08:43;;;;;;;;;4.33;4.33;;;;;22.49;53.64;101206.44;5058785;28;45271;-86
2021/08/02 09:11:09;;;;;;;;;5.67;4.00;;;;;22.62;52.85;101215.03;5057762;28;45375;-85
2021/08/02 09:13:36;;;;;;;;;4.00;4.00;;;;;22.72;52.14;101219.28;5058504;28;46393;-86
2021/08/02 09:16:21;;;;;;;;;7.67;5.00;;;;;22.84;52.49;101227.94;5058605;28;45457;-85
2021/08/02 09:19:12;;;;;;;;;3.00;3.00;;;;;22.93;51.89;101214.25;5057296;28;45346;-86
2021/08/02 09:21:42;;;;;;;;;4.00;3.00;;;;;23.14;51.70;101219.94;5058844;28;45292;-86
2021/08/02 09:24:08;;;;;;;;;4.00;3.00;;;;;23.26;50.61;101210.72;5058234;28;45757;-86
2021/08/02 09:26:36;;;;;;;;;2.67;2.67;;;;;23.46;50.60;101226.25;5058288;28;45190;-86
2021/08/02 09:29:03;;;;;;;;;4.33;3.00;;;;;23.65;49.89;101225.69;5058578;28;45354;-85
2021/08/02 09:31:39;;;;;;;;;7.00;3.00;;;;;23.86;50.39;101215.22;5058799;28;45373;-86
2021/08/02 09:34:07;;;;;;;;;3.67;3.00;;;;;24.06;49.38;101216.41;5057126;28;47537;-86
2021/08/02 09:36:38;;;;;;;;;4.00;2.00;;;;;24.24;48.96;101227.53;5057240;28;45413;-86
2021/08/02 09:39:14;;;;;;;;;3.00;3.00;;;;;24.42;48.40;101217.09;5058964;28;45246;-86
2021/08/02 09:41:41;;;;;;;;;2.00;2.00;;;;;24.66;47.95;101212.72;5058970;28;45322;-86
2021/08/02 09:44:16;;;;;;;;;2.00;2.00;;;;;24.85;45.66;101210.25;5058232;28;45349;-86
2021/08/02 09:46:53;;;;;;;;;4.00;1.00;;;;;25.19;47.14;101207.31;5058496;28;45358;-86
2021/08/02 09:49:18;;;;;;;;;4.00;3.00;;;;;25.63;47.28;101203.00;5040502;28;45469;-87
2021/08/02 09:51:43;;;;;;;;;3.00;3.00;;;;;25.99;45.88;101207.91;5057423;28;45617;-86
2021/08/02 09:54:09;;;;;;;;;3.67;2.67;;;;;26.09;45.04;101210.22;5067188;27;47202;-86
2021/08/02 09:56:36;;;;;;;;;2.67;2.67;;;;;26.31;44.94;101217.41;5087585;27;44748;-86
2021/08/02 09:59:01;;;;;;;;;3.00;3.00;;;;;26.44;44.35;101210.59;5078835;27;45315;-85
2021/08/02 10:01:27;;;;;;;;;3.33;2.00;;;;;26.51;43.92;101213.00;5058500;28;45328;-86
2021/08/02 10:03:53;;;;;;;;;3.00;3.00;;;;;26.43;43.23;101207.97;5057825;28;46201;-86
2021/08/02 10:06:19;;;;;;;;;5.00;2.67;;;;;26.30;43.51;101205.75;5057863;28;45291;-86
2021/08/02 10:08:44;;;;;;;;;2.00;2.00;;;;;26.18;44.13;101212.53;5058005;28;45381;-86
2021/08/02 10:11:11;;;;;;;;;3.33;2.00;;;;;26.00;43.19;101209.63;5058157;28;45513;-86
2021/08/02 10:13:45;;;;;;;;;4.00;2.67;;;;;25.78;43.46;101198.88;5057892;28;46670;-85
2021/08/02 10:16:14;;;;;;;;;5.00;4.00;;;;;25.65;43.17;101210.09;5057663;28;45328;-86
2021/08/02 10:18:40;;;;;;;;;3.33;1.67;;;;;25.51;42.96;101213.28;5057803;28;45532;-86
2021/08/02 10:21:11;;;;;;;;;5.00;3.00;;;;;25.38;43.32;101212.88;5057883;28;45502;-86
2021/08/02 10:23:38;;;;;;;;;2.00;2.00;;;;;25.18;43.13;101211.81;5057553;28;45475;-86
2021/08/02 10:26:28;;;;;;;;;4.00;3.00;;;;;25.14;43.40;101220.06;5057677;28;45251;-86
2021/08/02 10:29:04;;;;;;;;;2.33;2.33;;;;;25.21;43.57;101217.06;5057643;28;45228;-86
2021/08/02 10:31:45;;;;;;;;;4.33;2.00;;;;;25.34;44.23;101205.84;5057880;28;45200;-86
2021/08/02 10:34:22;;;;;;;;;1.33;1.33;;;;;25.60;43.61;101208.47;5057323;28;46452;-86
2021/08/02 10:37:02;;;;;;;;;2.67;2.00;;;;;25.74;43.27;101211.53;5055939;28;45955;-86
2021/08/02 10:39:30;;;;;;;;;3.33;2.00;;;;;25.74;43.00;101203.47;5057736;28;45416;-86
2021/08/02 10:42:08;;;;;;;;;2.67;2.33;;;;;25.70;42.82;101215.28;5057922;28;45623;-86
2021/08/02 10:44:34;;;;;;;;;4.33;3.67;;;;;25.60;42.70;101211.19;5057183;28;46533;-86
2021/08/02 10:47:05;;;;;;;;;2.00;2.00;;;;;25.44;42.58;101201.03;5057352;28;45442;-86
2021/08/02 10:49:31;;;;;;;;;8.33;4.33;;;;;25.43;42.42;101210.00;5057339;28;45443;-86
2021/08/02 10:51:56;;;;;;;;;2.00;2.00;;;;;25.40;43.02;101210.16;5057641;28;45424;-87
2021/08/02 10:54:22;;;;;;;;;4.00;4.00;;;;;25.46;42.82;101206.34;5057253;28;46049;-86
2021/08/02 10:56:48;;;;;;;;;4.33;3.33;;;;;25.52;43.45;101209.66;5057209;28;45495;-86
2021/08/02 10:59:16;;;;;;;;;4.00;3.00;;;;;25.64;43.11;101204.72;5055697;28;45331;-86
2021/08/02 11:01:50;;;;;;;;;2.33;2.33;;;;;25.82;43.29;101205.88;5073078;27;45408;-86
2021/08/02 11:04:21;;;;;;;;;4.00;4.00;;;;;26.01;43.32;101211.41;5056694;28;45222;-86
2021/08/02 11:06:48;;;;;;;;;4.00;3.33;;;;;26.09;42.60;101199.44;5072666;27;45422;-85
2021/08/02 11:09:14;;;;;;;;;3.00;3.00;;;;;26.20;42.84;101193.59;5056664;28;45343;-85
2021/08/02 11:11:40;;;;;;;;;4.00;3.00;;;;;26.48;42.75;101209.50;5055879;28;46157;-85
2021/08/02 11:14:10;;;;;;;;;4.33;4.33;;;;;26.65;42.76;101205.22;5057036;28;45181;-85
2021/08/02 11:16:51;;;;;;;;;5.67;3.00;;;;;26.93;42.37;101211.22;5056684;28;45425;-85
2021/08/02 11:19:21;;;;;;;;;5.33;4.00;;;;;27.22;42.07;101201.00;5055294;28;45427;-85
2021/08/02 11:21:48;;;;;;;;;4.33;4.33;;;;;27.40;41.08;101196.56;5056663;28;45326;-84
2021/08/02 11:24:14;;;;;;;;;6.00;4.00;;;;;27.61;40.77;101190.19;5072017;27;46258;-86
2021/08/02 11:26:55;;;;;;;;;4.00;4.00;;;;;27.66;41.12;101192.69;5056655;28;45182;-86
2021/08/02 11:29:24;;;;;;;;;5.00;5.00;;;;;27.67;40.65;101197.16;5056611;28;45373;-85